<?xml version="1.0" encoding="UTF-8" standalone="no" ?>
<gpx xmlns="http://www.topografix.com/GPX/1/1" xmlns:xsi="http://www.w3.org/2001/XMLSchema-instance" xsi:schemaLocation="http://www.topografix.com/GPX/1/1 http://www.topografix.com/GPX/1/1/gpx.xsd" version="1.1" creator="VisuGPX - https://www.visugpx.com">
  <metadata>
    <name>Randonnée cool Warndt</name>
    <desc><![CDATA[Walkmeter Marche 31 mai 2018 à 14:15:36]]></desc>
  </metadata>
  <trk>
    <name><![CDATA[Nouveau parcours]]></name>
    <trkseg>
      <trkpt lat="49.21164" lon="6.71853">
        <ele>268.9</ele>
        <time>2018-05-31T12:15:36Z</time>
      </trkpt>
      <trkpt lat="49.21164" lon="6.71854">
        <ele>268.9</ele>
        <time>2018-05-31T12:15:42Z</time>
      </trkpt>
      <trkpt lat="49.21162" lon="6.71858">
        <ele>268.8</ele>
        <time>2018-05-31T12:15:45Z</time>
      </trkpt>
      <trkpt lat="49.21154" lon="6.71869">
        <ele>268.7</ele>
        <time>2018-05-31T12:15:50Z</time>
      </trkpt>
      <trkpt lat="49.2115" lon="6.71884">
        <ele>268.6</ele>
        <time>2018-05-31T12:15:56Z</time>
      </trkpt>
      <trkpt lat="49.21154" lon="6.71906">
        <ele>268.2</ele>
        <time>2018-05-31T12:16:10Z</time>
      </trkpt>
      <trkpt lat="49.21157" lon="6.71926">
        <ele>267.9</ele>
        <time>2018-05-31T12:16:23Z</time>
      </trkpt>
      <trkpt lat="49.2116" lon="6.71948">
        <ele>267.6</ele>
        <time>2018-05-31T12:16:36Z</time>
      </trkpt>
      <trkpt lat="49.21164" lon="6.71969">
        <ele>267.3</ele>
        <time>2018-05-31T12:16:48Z</time>
      </trkpt>
      <trkpt lat="49.21168" lon="6.71989">
        <ele>267</ele>
        <time>2018-05-31T12:17:00Z</time>
      </trkpt>
      <trkpt lat="49.21171" lon="6.7201">
        <ele>266.8</ele>
        <time>2018-05-31T12:17:11Z</time>
      </trkpt>
      <trkpt lat="49.21175" lon="6.72032">
        <ele>266.5</ele>
        <time>2018-05-31T12:17:22Z</time>
      </trkpt>
      <trkpt lat="49.21172" lon="6.7205">
        <ele>266.2</ele>
        <time>2018-05-31T12:17:36Z</time>
      </trkpt>
      <trkpt lat="49.21162" lon="6.72065">
        <ele>265.8</ele>
        <time>2018-05-31T12:17:50Z</time>
      </trkpt>
      <trkpt lat="49.21154" lon="6.72071">
        <ele>265.7</ele>
        <time>2018-05-31T12:17:57Z</time>
      </trkpt>
      <trkpt lat="49.21149" lon="6.72076">
        <ele>265.6</ele>
        <time>2018-05-31T12:18:02Z</time>
      </trkpt>
      <trkpt lat="49.21136" lon="6.72084">
        <ele>265.4</ele>
        <time>2018-05-31T12:18:13Z</time>
      </trkpt>
      <trkpt lat="49.21123" lon="6.72092">
        <ele>265.2</ele>
        <time>2018-05-31T12:18:25Z</time>
      </trkpt>
      <trkpt lat="49.2111" lon="6.72102">
        <ele>265</ele>
        <time>2018-05-31T12:18:37Z</time>
      </trkpt>
      <trkpt lat="49.21099" lon="6.72114">
        <ele>264.8</ele>
        <time>2018-05-31T12:18:49Z</time>
      </trkpt>
      <trkpt lat="49.21087" lon="6.72124">
        <ele>264.5</ele>
        <time>2018-05-31T12:19:02Z</time>
      </trkpt>
      <trkpt lat="49.21074" lon="6.72132">
        <ele>264.4</ele>
        <time>2018-05-31T12:19:12Z</time>
      </trkpt>
      <trkpt lat="49.2106" lon="6.72141">
        <ele>264.2</ele>
        <time>2018-05-31T12:19:21Z</time>
      </trkpt>
      <trkpt lat="49.21047" lon="6.72164">
        <ele>263.7</ele>
        <time>2018-05-31T12:19:37Z</time>
      </trkpt>
      <trkpt lat="49.21047" lon="6.72164">
        <ele>263.7</ele>
        <time>2018-05-31T12:20:13Z</time>
      </trkpt>
      <trkpt lat="49.21046" lon="6.72181">
        <ele>263.3</ele>
        <time>2018-05-31T12:20:13Z</time>
      </trkpt>
      <trkpt lat="49.21051" lon="6.722">
        <ele>263.1</ele>
        <time>2018-05-31T12:20:25Z</time>
      </trkpt>
      <trkpt lat="49.21057" lon="6.72221">
        <ele>262.9</ele>
        <time>2018-05-31T12:20:37Z</time>
      </trkpt>
      <trkpt lat="49.21064" lon="6.72241">
        <ele>262.7</ele>
        <time>2018-05-31T12:20:47Z</time>
      </trkpt>
      <trkpt lat="49.21072" lon="6.7226">
        <ele>262.5</ele>
        <time>2018-05-31T12:20:57Z</time>
      </trkpt>
      <trkpt lat="49.21074" lon="6.72268">
        <ele>262.5</ele>
        <time>2018-05-31T12:21:02Z</time>
      </trkpt>
      <trkpt lat="49.21078" lon="6.7228">
        <ele>262.1</ele>
        <time>2018-05-31T12:21:09Z</time>
      </trkpt>
      <trkpt lat="49.21082" lon="6.72299">
        <ele>261.6</ele>
        <time>2018-05-31T12:21:20Z</time>
      </trkpt>
      <trkpt lat="49.21086" lon="6.72319">
        <ele>261.1</ele>
        <time>2018-05-31T12:21:31Z</time>
      </trkpt>
      <trkpt lat="49.21091" lon="6.7234">
        <ele>260.6</ele>
        <time>2018-05-31T12:21:42Z</time>
      </trkpt>
      <trkpt lat="49.21098" lon="6.72361">
        <ele>259.9</ele>
        <time>2018-05-31T12:21:56Z</time>
      </trkpt>
      <trkpt lat="49.21102" lon="6.72378">
        <ele>259.4</ele>
        <time>2018-05-31T12:22:07Z</time>
      </trkpt>
      <trkpt lat="49.21103" lon="6.72383">
        <ele>259.3</ele>
        <time>2018-05-31T12:22:10Z</time>
      </trkpt>
      <trkpt lat="49.21107" lon="6.72403">
        <ele>258.9</ele>
        <time>2018-05-31T12:22:20Z</time>
      </trkpt>
      <trkpt lat="49.21112" lon="6.72423">
        <ele>258.5</ele>
        <time>2018-05-31T12:22:30Z</time>
      </trkpt>
      <trkpt lat="49.21119" lon="6.72444">
        <ele>258.1</ele>
        <time>2018-05-31T12:22:42Z</time>
      </trkpt>
      <trkpt lat="49.21125" lon="6.72464">
        <ele>257.6</ele>
        <time>2018-05-31T12:22:54Z</time>
      </trkpt>
      <trkpt lat="49.2113" lon="6.72483">
        <ele>257.2</ele>
        <time>2018-05-31T12:23:05Z</time>
      </trkpt>
      <trkpt lat="49.21136" lon="6.72504">
        <ele>256.7</ele>
        <time>2018-05-31T12:23:18Z</time>
      </trkpt>
      <trkpt lat="49.21141" lon="6.72521">
        <ele>256.3</ele>
        <time>2018-05-31T12:23:28Z</time>
      </trkpt>
      <trkpt lat="49.21141" lon="6.72524">
        <ele>256.3</ele>
        <time>2018-05-31T12:23:30Z</time>
      </trkpt>
      <trkpt lat="49.21147" lon="6.72544">
        <ele>255.7</ele>
        <time>2018-05-31T12:23:41Z</time>
      </trkpt>
      <trkpt lat="49.21152" lon="6.72566">
        <ele>255.2</ele>
        <time>2018-05-31T12:23:53Z</time>
      </trkpt>
      <trkpt lat="49.21157" lon="6.72586">
        <ele>254.7</ele>
        <time>2018-05-31T12:24:04Z</time>
      </trkpt>
      <trkpt lat="49.21162" lon="6.72605">
        <ele>254.1</ele>
        <time>2018-05-31T12:24:15Z</time>
      </trkpt>
      <trkpt lat="49.21186" lon="6.72667">
        <ele>253.4</ele>
        <time>2018-05-31T12:24:39Z</time>
      </trkpt>
      <trkpt lat="49.21186" lon="6.72667">
        <ele>253.4</ele>
        <time>2018-05-31T12:25:16Z</time>
      </trkpt>
      <trkpt lat="49.21203" lon="6.7271">
        <ele>253.2</ele>
        <time>2018-05-31T12:25:22Z</time>
      </trkpt>
      <trkpt lat="49.21206" lon="6.72724">
        <ele>253.3</ele>
        <time>2018-05-31T12:25:32Z</time>
      </trkpt>
      <trkpt lat="49.21215" lon="6.72726">
        <ele>253.5</ele>
        <time>2018-05-31T12:25:46Z</time>
      </trkpt>
      <trkpt lat="49.21229" lon="6.7272">
        <ele>253.7</ele>
        <time>2018-05-31T12:26:03Z</time>
      </trkpt>
      <trkpt lat="49.21242" lon="6.7271">
        <ele>253.8</ele>
        <time>2018-05-31T12:26:17Z</time>
      </trkpt>
      <trkpt lat="49.21255" lon="6.72702">
        <ele>253.9</ele>
        <time>2018-05-31T12:26:30Z</time>
      </trkpt>
      <trkpt lat="49.21269" lon="6.72696">
        <ele>254.1</ele>
        <time>2018-05-31T12:26:42Z</time>
      </trkpt>
      <trkpt lat="49.21282" lon="6.72689">
        <ele>254.2</ele>
        <time>2018-05-31T12:26:55Z</time>
      </trkpt>
      <trkpt lat="49.21296" lon="6.72682">
        <ele>254.3</ele>
        <time>2018-05-31T12:27:09Z</time>
      </trkpt>
      <trkpt lat="49.21309" lon="6.72678">
        <ele>254.4</ele>
        <time>2018-05-31T12:27:20Z</time>
      </trkpt>
      <trkpt lat="49.21324" lon="6.72673">
        <ele>254.6</ele>
        <time>2018-05-31T12:27:32Z</time>
      </trkpt>
      <trkpt lat="49.21338" lon="6.72668">
        <ele>254.7</ele>
        <time>2018-05-31T12:27:43Z</time>
      </trkpt>
      <trkpt lat="49.2135" lon="6.72664">
        <ele>254.8</ele>
        <time>2018-05-31T12:27:53Z</time>
      </trkpt>
      <trkpt lat="49.21363" lon="6.72657">
        <ele>254.9</ele>
        <time>2018-05-31T12:28:04Z</time>
      </trkpt>
      <trkpt lat="49.21376" lon="6.72648">
        <ele>255</ele>
        <time>2018-05-31T12:28:14Z</time>
      </trkpt>
      <trkpt lat="49.21388" lon="6.72637">
        <ele>255.1</ele>
        <time>2018-05-31T12:28:24Z</time>
      </trkpt>
      <trkpt lat="49.21401" lon="6.72626">
        <ele>255.2</ele>
        <time>2018-05-31T12:28:36Z</time>
      </trkpt>
      <trkpt lat="49.21415" lon="6.72619">
        <ele>255.3</ele>
        <time>2018-05-31T12:28:48Z</time>
      </trkpt>
      <trkpt lat="49.21428" lon="6.72612">
        <ele>255.5</ele>
        <time>2018-05-31T12:29:02Z</time>
      </trkpt>
      <trkpt lat="49.21442" lon="6.72605">
        <ele>255.6</ele>
        <time>2018-05-31T12:29:17Z</time>
      </trkpt>
      <trkpt lat="49.21456" lon="6.72597">
        <ele>255.8</ele>
        <time>2018-05-31T12:29:29Z</time>
      </trkpt>
      <trkpt lat="49.21469" lon="6.7259">
        <ele>255.9</ele>
        <time>2018-05-31T12:29:39Z</time>
      </trkpt>
      <trkpt lat="49.2148" lon="6.72586">
        <ele>255.9</ele>
        <time>2018-05-31T12:29:47Z</time>
      </trkpt>
      <trkpt lat="49.21483" lon="6.72585">
        <ele>256</ele>
        <time>2018-05-31T12:29:49Z</time>
      </trkpt>
      <trkpt lat="49.21495" lon="6.7258">
        <ele>256.2</ele>
        <time>2018-05-31T12:29:59Z</time>
      </trkpt>
      <trkpt lat="49.21507" lon="6.72567">
        <ele>256.5</ele>
        <time>2018-05-31T12:30:13Z</time>
      </trkpt>
      <trkpt lat="49.21519" lon="6.72556">
        <ele>256.9</ele>
        <time>2018-05-31T12:30:29Z</time>
      </trkpt>
      <trkpt lat="49.21531" lon="6.72552">
        <ele>257.1</ele>
        <time>2018-05-31T12:30:42Z</time>
      </trkpt>
      <trkpt lat="49.21541" lon="6.72547">
        <ele>257.3</ele>
        <time>2018-05-31T12:30:52Z</time>
      </trkpt>
      <trkpt lat="49.2155" lon="6.72537">
        <ele>257.5</ele>
        <time>2018-05-31T12:31:01Z</time>
      </trkpt>
      <trkpt lat="49.21561" lon="6.72532">
        <ele>257.8</ele>
        <time>2018-05-31T12:31:11Z</time>
      </trkpt>
      <trkpt lat="49.21575" lon="6.72527">
        <ele>258</ele>
        <time>2018-05-31T12:31:23Z</time>
      </trkpt>
      <trkpt lat="49.21589" lon="6.7252">
        <ele>258.3</ele>
        <time>2018-05-31T12:31:37Z</time>
      </trkpt>
      <trkpt lat="49.21603" lon="6.7251">
        <ele>258.6</ele>
        <time>2018-05-31T12:31:50Z</time>
      </trkpt>
      <trkpt lat="49.21616" lon="6.72502">
        <ele>258.8</ele>
        <time>2018-05-31T12:32:01Z</time>
      </trkpt>
      <trkpt lat="49.21631" lon="6.72496">
        <ele>259.1</ele>
        <time>2018-05-31T12:32:13Z</time>
      </trkpt>
      <trkpt lat="49.21645" lon="6.72494">
        <ele>259.3</ele>
        <time>2018-05-31T12:32:24Z</time>
      </trkpt>
      <trkpt lat="49.21648" lon="6.72492">
        <ele>259.4</ele>
        <time>2018-05-31T12:32:27Z</time>
      </trkpt>
      <trkpt lat="49.21653" lon="6.7249">
        <ele>259.6</ele>
        <time>2018-05-31T12:32:32Z</time>
      </trkpt>
      <trkpt lat="49.21658" lon="6.72487">
        <ele>259.9</ele>
        <time>2018-05-31T12:32:37Z</time>
      </trkpt>
      <trkpt lat="49.21672" lon="6.7248">
        <ele>260.4</ele>
        <time>2018-05-31T12:32:49Z</time>
      </trkpt>
      <trkpt lat="49.21685" lon="6.72474">
        <ele>261</ele>
        <time>2018-05-31T12:33:00Z</time>
      </trkpt>
      <trkpt lat="49.21693" lon="6.72465">
        <ele>261.5</ele>
        <time>2018-05-31T12:33:11Z</time>
      </trkpt>
      <trkpt lat="49.21702" lon="6.72458">
        <ele>262.5</ele>
        <time>2018-05-31T12:33:31Z</time>
      </trkpt>
      <trkpt lat="49.21703" lon="6.72457">
        <ele>262.5</ele>
        <time>2018-05-31T12:33:33Z</time>
      </trkpt>
      <trkpt lat="49.21715" lon="6.72451">
        <ele>263.4</ele>
        <time>2018-05-31T12:33:53Z</time>
      </trkpt>
      <trkpt lat="49.21727" lon="6.72441">
        <ele>264.2</ele>
        <time>2018-05-31T12:34:12Z</time>
      </trkpt>
      <trkpt lat="49.2174" lon="6.72433">
        <ele>264.8</ele>
        <time>2018-05-31T12:34:26Z</time>
      </trkpt>
      <trkpt lat="49.21753" lon="6.72426">
        <ele>265.2</ele>
        <time>2018-05-31T12:34:36Z</time>
      </trkpt>
      <trkpt lat="49.21763" lon="6.72419">
        <ele>265.6</ele>
        <time>2018-05-31T12:34:45Z</time>
      </trkpt>
      <trkpt lat="49.21766" lon="6.72417">
        <ele>265.7</ele>
        <time>2018-05-31T12:34:48Z</time>
      </trkpt>
      <trkpt lat="49.21779" lon="6.72408">
        <ele>266.1</ele>
        <time>2018-05-31T12:35:02Z</time>
      </trkpt>
      <trkpt lat="49.21792" lon="6.724">
        <ele>266.5</ele>
        <time>2018-05-31T12:35:15Z</time>
      </trkpt>
      <trkpt lat="49.21806" lon="6.72393">
        <ele>266.9</ele>
        <time>2018-05-31T12:35:28Z</time>
      </trkpt>
      <trkpt lat="49.21819" lon="6.72385">
        <ele>267.4</ele>
        <time>2018-05-31T12:35:42Z</time>
      </trkpt>
      <trkpt lat="49.21832" lon="6.72378">
        <ele>267.8</ele>
        <time>2018-05-31T12:35:55Z</time>
      </trkpt>
      <trkpt lat="49.21846" lon="6.72373">
        <ele>268.2</ele>
        <time>2018-05-31T12:36:06Z</time>
      </trkpt>
      <trkpt lat="49.2186" lon="6.72367">
        <ele>268.4</ele>
        <time>2018-05-31T12:36:15Z</time>
      </trkpt>
      <trkpt lat="49.21866" lon="6.72362">
        <ele>268.6</ele>
        <time>2018-05-31T12:36:21Z</time>
      </trkpt>
      <trkpt lat="49.21872" lon="6.72358">
        <ele>268.5</ele>
        <time>2018-05-31T12:36:26Z</time>
      </trkpt>
      <trkpt lat="49.21886" lon="6.72349">
        <ele>268.3</ele>
        <time>2018-05-31T12:36:37Z</time>
      </trkpt>
      <trkpt lat="49.21899" lon="6.7234">
        <ele>268.1</ele>
        <time>2018-05-31T12:36:47Z</time>
      </trkpt>
      <trkpt lat="49.21911" lon="6.7233">
        <ele>267.7</ele>
        <time>2018-05-31T12:37:02Z</time>
      </trkpt>
      <trkpt lat="49.21923" lon="6.72319">
        <ele>267.4</ele>
        <time>2018-05-31T12:37:18Z</time>
      </trkpt>
      <trkpt lat="49.21933" lon="6.72302">
        <ele>267.1</ele>
        <time>2018-05-31T12:37:30Z</time>
      </trkpt>
      <trkpt lat="49.21943" lon="6.72285">
        <ele>266.9</ele>
        <time>2018-05-31T12:37:41Z</time>
      </trkpt>
      <trkpt lat="49.21952" lon="6.72269">
        <ele>266.7</ele>
        <time>2018-05-31T12:37:52Z</time>
      </trkpt>
      <trkpt lat="49.21962" lon="6.72255">
        <ele>266.4</ele>
        <time>2018-05-31T12:38:05Z</time>
      </trkpt>
      <trkpt lat="49.21971" lon="6.72238">
        <ele>266.1</ele>
        <time>2018-05-31T12:38:18Z</time>
      </trkpt>
      <trkpt lat="49.2198" lon="6.72221">
        <ele>265.9</ele>
        <time>2018-05-31T12:38:29Z</time>
      </trkpt>
      <trkpt lat="49.2199" lon="6.72206">
        <ele>265.6</ele>
        <time>2018-05-31T12:38:41Z</time>
      </trkpt>
      <trkpt lat="49.22001" lon="6.72194">
        <ele>265.4</ele>
        <time>2018-05-31T12:38:52Z</time>
      </trkpt>
      <trkpt lat="49.22004" lon="6.72191">
        <ele>265.3</ele>
        <time>2018-05-31T12:38:55Z</time>
      </trkpt>
      <trkpt lat="49.22011" lon="6.7218">
        <ele>265.1</ele>
        <time>2018-05-31T12:39:03Z</time>
      </trkpt>
      <trkpt lat="49.22022" lon="6.72163">
        <ele>264.7</ele>
        <time>2018-05-31T12:39:14Z</time>
      </trkpt>
      <trkpt lat="49.22032" lon="6.72149">
        <ele>264.4</ele>
        <time>2018-05-31T12:39:24Z</time>
      </trkpt>
      <trkpt lat="49.22041" lon="6.72134">
        <ele>264.1</ele>
        <time>2018-05-31T12:39:36Z</time>
      </trkpt>
      <trkpt lat="49.22049" lon="6.72115">
        <ele>263.7</ele>
        <time>2018-05-31T12:39:48Z</time>
      </trkpt>
      <trkpt lat="49.22059" lon="6.721">
        <ele>263.4</ele>
        <time>2018-05-31T12:39:59Z</time>
      </trkpt>
      <trkpt lat="49.2207" lon="6.72085">
        <ele>263</ele>
        <time>2018-05-31T12:40:11Z</time>
      </trkpt>
      <trkpt lat="49.2208" lon="6.72068">
        <ele>262.4</ele>
        <time>2018-05-31T12:40:30Z</time>
      </trkpt>
      <trkpt lat="49.22086" lon="6.72056">
        <ele>262</ele>
        <time>2018-05-31T12:40:43Z</time>
      </trkpt>
      <trkpt lat="49.22089" lon="6.7205">
        <ele>262</ele>
        <time>2018-05-31T12:40:50Z</time>
      </trkpt>
      <trkpt lat="49.22097" lon="6.72032">
        <ele>261.9</ele>
        <time>2018-05-31T12:41:06Z</time>
      </trkpt>
      <trkpt lat="49.22107" lon="6.72016">
        <ele>261.9</ele>
        <time>2018-05-31T12:41:22Z</time>
      </trkpt>
      <trkpt lat="49.22129" lon="6.71983">
        <ele>261.1</ele>
        <time>2018-05-31T12:41:39Z</time>
      </trkpt>
      <trkpt lat="49.22129" lon="6.71983">
        <ele>261.1</ele>
        <time>2018-05-31T12:46:36Z</time>
      </trkpt>
      <trkpt lat="49.2214" lon="6.71965">
        <ele>260.4</ele>
        <time>2018-05-31T12:46:39Z</time>
      </trkpt>
      <trkpt lat="49.22147" lon="6.71948">
        <ele>260.3</ele>
        <time>2018-05-31T12:46:53Z</time>
      </trkpt>
      <trkpt lat="49.22157" lon="6.7193">
        <ele>260.3</ele>
        <time>2018-05-31T12:47:01Z</time>
      </trkpt>
      <trkpt lat="49.22167" lon="6.71915">
        <ele>260.2</ele>
        <time>2018-05-31T12:47:09Z</time>
      </trkpt>
      <trkpt lat="49.22178" lon="6.71902">
        <ele>260.2</ele>
        <time>2018-05-31T12:47:17Z</time>
      </trkpt>
      <trkpt lat="49.22188" lon="6.71888">
        <ele>260.1</ele>
        <time>2018-05-31T12:47:25Z</time>
      </trkpt>
      <trkpt lat="49.22197" lon="6.71872">
        <ele>260.1</ele>
        <time>2018-05-31T12:47:35Z</time>
      </trkpt>
      <trkpt lat="49.22207" lon="6.71856">
        <ele>260</ele>
        <time>2018-05-31T12:47:46Z</time>
      </trkpt>
      <trkpt lat="49.22215" lon="6.7184">
        <ele>260</ele>
        <time>2018-05-31T12:47:56Z</time>
      </trkpt>
      <trkpt lat="49.22224" lon="6.71822">
        <ele>259.9</ele>
        <time>2018-05-31T12:48:08Z</time>
      </trkpt>
      <trkpt lat="49.22234" lon="6.71804">
        <ele>259.9</ele>
        <time>2018-05-31T12:48:19Z</time>
      </trkpt>
      <trkpt lat="49.2224" lon="6.71792">
        <ele>259.9</ele>
        <time>2018-05-31T12:48:26Z</time>
      </trkpt>
      <trkpt lat="49.22243" lon="6.71788">
        <ele>259.8</ele>
        <time>2018-05-31T12:48:29Z</time>
      </trkpt>
      <trkpt lat="49.22254" lon="6.71772">
        <ele>259.8</ele>
        <time>2018-05-31T12:48:40Z</time>
      </trkpt>
      <trkpt lat="49.22265" lon="6.71757">
        <ele>259.7</ele>
        <time>2018-05-31T12:48:50Z</time>
      </trkpt>
      <trkpt lat="49.22275" lon="6.7174">
        <ele>259.7</ele>
        <time>2018-05-31T12:49:00Z</time>
      </trkpt>
      <trkpt lat="49.22284" lon="6.71724">
        <ele>259.6</ele>
        <time>2018-05-31T12:49:10Z</time>
      </trkpt>
      <trkpt lat="49.22294" lon="6.71709">
        <ele>259.6</ele>
        <time>2018-05-31T12:49:21Z</time>
      </trkpt>
      <trkpt lat="49.22303" lon="6.71693">
        <ele>259.5</ele>
        <time>2018-05-31T12:49:34Z</time>
      </trkpt>
      <trkpt lat="49.22313" lon="6.71677">
        <ele>259.5</ele>
        <time>2018-05-31T12:49:46Z</time>
      </trkpt>
      <trkpt lat="49.22324" lon="6.71661">
        <ele>259.4</ele>
        <time>2018-05-31T12:49:57Z</time>
      </trkpt>
      <trkpt lat="49.22335" lon="6.71645">
        <ele>259.4</ele>
        <time>2018-05-31T12:50:09Z</time>
      </trkpt>
      <trkpt lat="49.22343" lon="6.71629">
        <ele>259.3</ele>
        <time>2018-05-31T12:50:19Z</time>
      </trkpt>
      <trkpt lat="49.22352" lon="6.71612">
        <ele>259.3</ele>
        <time>2018-05-31T12:50:29Z</time>
      </trkpt>
      <trkpt lat="49.22363" lon="6.71599">
        <ele>259.2</ele>
        <time>2018-05-31T12:50:40Z</time>
      </trkpt>
      <trkpt lat="49.22374" lon="6.71585">
        <ele>259.2</ele>
        <time>2018-05-31T12:50:51Z</time>
      </trkpt>
      <trkpt lat="49.22383" lon="6.7157">
        <ele>259.1</ele>
        <time>2018-05-31T12:51:01Z</time>
      </trkpt>
      <trkpt lat="49.22393" lon="6.71554">
        <ele>259.1</ele>
        <time>2018-05-31T12:51:13Z</time>
      </trkpt>
      <trkpt lat="49.22402" lon="6.71537">
        <ele>259</ele>
        <time>2018-05-31T12:51:25Z</time>
      </trkpt>
      <trkpt lat="49.22411" lon="6.7152">
        <ele>259</ele>
        <time>2018-05-31T12:51:35Z</time>
      </trkpt>
      <trkpt lat="49.22419" lon="6.71503">
        <ele>258.9</ele>
        <time>2018-05-31T12:51:46Z</time>
      </trkpt>
      <trkpt lat="49.2242" lon="6.715">
        <ele>258.9</ele>
        <time>2018-05-31T12:51:48Z</time>
      </trkpt>
      <trkpt lat="49.22428" lon="6.71485">
        <ele>258.8</ele>
        <time>2018-05-31T12:51:58Z</time>
      </trkpt>
      <trkpt lat="49.22437" lon="6.7147">
        <ele>258.7</ele>
        <time>2018-05-31T12:52:07Z</time>
      </trkpt>
      <trkpt lat="49.22447" lon="6.71454">
        <ele>258.5</ele>
        <time>2018-05-31T12:52:18Z</time>
      </trkpt>
      <trkpt lat="49.22477" lon="6.71439">
        <ele>257.4</ele>
        <time>2018-05-31T12:52:57Z</time>
      </trkpt>
      <trkpt lat="49.22477" lon="6.71439">
        <ele>257.4</ele>
        <time>2018-05-31T12:55:08Z</time>
      </trkpt>
      <trkpt lat="49.22497" lon="6.71439">
        <ele>256.4</ele>
        <time>2018-05-31T12:55:13Z</time>
      </trkpt>
      <trkpt lat="49.22511" lon="6.71436">
        <ele>256.2</ele>
        <time>2018-05-31T12:55:27Z</time>
      </trkpt>
      <trkpt lat="49.22524" lon="6.71434">
        <ele>256.1</ele>
        <time>2018-05-31T12:55:37Z</time>
      </trkpt>
      <trkpt lat="49.22538" lon="6.71432">
        <ele>256</ele>
        <time>2018-05-31T12:55:47Z</time>
      </trkpt>
      <trkpt lat="49.22552" lon="6.71431">
        <ele>255.9</ele>
        <time>2018-05-31T12:55:57Z</time>
      </trkpt>
      <trkpt lat="49.22555" lon="6.7143">
        <ele>255.8</ele>
        <time>2018-05-31T12:56:00Z</time>
      </trkpt>
      <trkpt lat="49.22567" lon="6.71428">
        <ele>255.1</ele>
        <time>2018-05-31T12:56:10Z</time>
      </trkpt>
      <trkpt lat="49.22581" lon="6.71424">
        <ele>254.2</ele>
        <time>2018-05-31T12:56:23Z</time>
      </trkpt>
      <trkpt lat="49.22595" lon="6.7142">
        <ele>253.4</ele>
        <time>2018-05-31T12:56:35Z</time>
      </trkpt>
      <trkpt lat="49.22609" lon="6.71416">
        <ele>252.5</ele>
        <time>2018-05-31T12:56:47Z</time>
      </trkpt>
      <trkpt lat="49.22611" lon="6.71416">
        <ele>252.5</ele>
        <time>2018-05-31T12:56:48Z</time>
      </trkpt>
      <trkpt lat="49.22623" lon="6.71417">
        <ele>252</ele>
        <time>2018-05-31T12:56:57Z</time>
      </trkpt>
      <trkpt lat="49.22637" lon="6.71418">
        <ele>251.4</ele>
        <time>2018-05-31T12:57:08Z</time>
      </trkpt>
      <trkpt lat="49.22651" lon="6.71416">
        <ele>250.8</ele>
        <time>2018-05-31T12:57:20Z</time>
      </trkpt>
      <trkpt lat="49.22665" lon="6.71414">
        <ele>250.1</ele>
        <time>2018-05-31T12:57:32Z</time>
      </trkpt>
      <trkpt lat="49.2268" lon="6.71413">
        <ele>249.5</ele>
        <time>2018-05-31T12:57:44Z</time>
      </trkpt>
      <trkpt lat="49.22685" lon="6.71412">
        <ele>249.3</ele>
        <time>2018-05-31T12:57:48Z</time>
      </trkpt>
      <trkpt lat="49.22694" lon="6.7141">
        <ele>248.8</ele>
        <time>2018-05-31T12:57:56Z</time>
      </trkpt>
      <trkpt lat="49.22708" lon="6.71409">
        <ele>247.9</ele>
        <time>2018-05-31T12:58:09Z</time>
      </trkpt>
      <trkpt lat="49.22721" lon="6.71407">
        <ele>247.3</ele>
        <time>2018-05-31T12:58:20Z</time>
      </trkpt>
      <trkpt lat="49.22735" lon="6.71406">
        <ele>246.6</ele>
        <time>2018-05-31T12:58:31Z</time>
      </trkpt>
      <trkpt lat="49.22749" lon="6.71407">
        <ele>245.9</ele>
        <time>2018-05-31T12:58:41Z</time>
      </trkpt>
      <trkpt lat="49.2275" lon="6.71407">
        <ele>245.9</ele>
        <time>2018-05-31T12:58:42Z</time>
      </trkpt>
      <trkpt lat="49.22763" lon="6.71408">
        <ele>244.9</ele>
        <time>2018-05-31T12:58:53Z</time>
      </trkpt>
      <trkpt lat="49.22777" lon="6.71407">
        <ele>243.8</ele>
        <time>2018-05-31T12:59:05Z</time>
      </trkpt>
      <trkpt lat="49.22792" lon="6.71405">
        <ele>242.7</ele>
        <time>2018-05-31T12:59:17Z</time>
      </trkpt>
      <trkpt lat="49.22793" lon="6.71404">
        <ele>242.7</ele>
        <time>2018-05-31T12:59:18Z</time>
      </trkpt>
      <trkpt lat="49.22807" lon="6.71402">
        <ele>241.6</ele>
        <time>2018-05-31T12:59:30Z</time>
      </trkpt>
      <trkpt lat="49.22822" lon="6.71398">
        <ele>240.6</ele>
        <time>2018-05-31T12:59:42Z</time>
      </trkpt>
      <trkpt lat="49.22836" lon="6.71396">
        <ele>239.5</ele>
        <time>2018-05-31T12:59:54Z</time>
      </trkpt>
      <trkpt lat="49.22837" lon="6.71396">
        <ele>239.4</ele>
        <time>2018-05-31T12:59:55Z</time>
      </trkpt>
      <trkpt lat="49.22851" lon="6.71394">
        <ele>237.1</ele>
        <time>2018-05-31T13:00:08Z</time>
      </trkpt>
      <trkpt lat="49.22855" lon="6.71393">
        <ele>236.4</ele>
        <time>2018-05-31T13:00:12Z</time>
      </trkpt>
      <trkpt lat="49.22864" lon="6.71391">
        <ele>234.9</ele>
        <time>2018-05-31T13:00:21Z</time>
      </trkpt>
      <trkpt lat="49.22873" lon="6.71391">
        <ele>233.5</ele>
        <time>2018-05-31T13:00:30Z</time>
      </trkpt>
      <trkpt lat="49.22878" lon="6.71391">
        <ele>233.1</ele>
        <time>2018-05-31T13:00:35Z</time>
      </trkpt>
      <trkpt lat="49.22892" lon="6.71389">
        <ele>232.1</ele>
        <time>2018-05-31T13:00:49Z</time>
      </trkpt>
      <trkpt lat="49.22904" lon="6.71393">
        <ele>230.8</ele>
        <time>2018-05-31T13:01:06Z</time>
      </trkpt>
      <trkpt lat="49.22905" lon="6.71393">
        <ele>230.7</ele>
        <time>2018-05-31T13:01:07Z</time>
      </trkpt>
      <trkpt lat="49.22916" lon="6.71408">
        <ele>229.9</ele>
        <time>2018-05-31T13:01:24Z</time>
      </trkpt>
      <trkpt lat="49.22924" lon="6.71424">
        <ele>229.4</ele>
        <time>2018-05-31T13:01:36Z</time>
      </trkpt>
      <trkpt lat="49.22935" lon="6.7144">
        <ele>228.7</ele>
        <time>2018-05-31T13:01:50Z</time>
      </trkpt>
      <trkpt lat="49.22944" lon="6.71454">
        <ele>228.3</ele>
        <time>2018-05-31T13:02:00Z</time>
      </trkpt>
      <trkpt lat="49.22955" lon="6.71468">
        <ele>227.8</ele>
        <time>2018-05-31T13:02:11Z</time>
      </trkpt>
      <trkpt lat="49.22955" lon="6.71469">
        <ele>227.7</ele>
        <time>2018-05-31T13:02:12Z</time>
      </trkpt>
      <trkpt lat="49.22963" lon="6.71483">
        <ele>228.1</ele>
        <time>2018-05-31T13:02:27Z</time>
      </trkpt>
      <trkpt lat="49.2296" lon="6.71496">
        <ele>228.5</ele>
        <time>2018-05-31T13:02:43Z</time>
      </trkpt>
      <trkpt lat="49.22948" lon="6.71509">
        <ele>228.8</ele>
        <time>2018-05-31T13:02:57Z</time>
      </trkpt>
      <trkpt lat="49.22937" lon="6.71522">
        <ele>229.1</ele>
        <time>2018-05-31T13:03:10Z</time>
      </trkpt>
      <trkpt lat="49.22928" lon="6.7154">
        <ele>229.4</ele>
        <time>2018-05-31T13:03:22Z</time>
      </trkpt>
      <trkpt lat="49.22921" lon="6.71559">
        <ele>229.7</ele>
        <time>2018-05-31T13:03:33Z</time>
      </trkpt>
      <trkpt lat="49.22912" lon="6.71575">
        <ele>230</ele>
        <time>2018-05-31T13:03:45Z</time>
      </trkpt>
      <trkpt lat="49.229" lon="6.71589">
        <ele>230.2</ele>
        <time>2018-05-31T13:03:57Z</time>
      </trkpt>
      <trkpt lat="49.22888" lon="6.71599">
        <ele>230.5</ele>
        <time>2018-05-31T13:04:08Z</time>
      </trkpt>
      <trkpt lat="49.22875" lon="6.71608">
        <ele>230.8</ele>
        <time>2018-05-31T13:04:20Z</time>
      </trkpt>
      <trkpt lat="49.22871" lon="6.7161">
        <ele>230.9</ele>
        <time>2018-05-31T13:04:23Z</time>
      </trkpt>
      <trkpt lat="49.22861" lon="6.71616">
        <ele>231.2</ele>
        <time>2018-05-31T13:04:31Z</time>
      </trkpt>
      <trkpt lat="49.22847" lon="6.71623">
        <ele>231.6</ele>
        <time>2018-05-31T13:04:44Z</time>
      </trkpt>
      <trkpt lat="49.22834" lon="6.71631">
        <ele>232.1</ele>
        <time>2018-05-31T13:04:57Z</time>
      </trkpt>
      <trkpt lat="49.22821" lon="6.71637">
        <ele>232.5</ele>
        <time>2018-05-31T13:05:08Z</time>
      </trkpt>
      <trkpt lat="49.22807" lon="6.71641">
        <ele>233</ele>
        <time>2018-05-31T13:05:22Z</time>
      </trkpt>
      <trkpt lat="49.22793" lon="6.71639">
        <ele>233.6</ele>
        <time>2018-05-31T13:05:38Z</time>
      </trkpt>
      <trkpt lat="49.2278" lon="6.71635">
        <ele>234.1</ele>
        <time>2018-05-31T13:05:52Z</time>
      </trkpt>
      <trkpt lat="49.22766" lon="6.71634">
        <ele>234.5</ele>
        <time>2018-05-31T13:06:03Z</time>
      </trkpt>
      <trkpt lat="49.22765" lon="6.71634">
        <ele>234.5</ele>
        <time>2018-05-31T13:06:04Z</time>
      </trkpt>
      <trkpt lat="49.22752" lon="6.71636">
        <ele>234.9</ele>
        <time>2018-05-31T13:06:13Z</time>
      </trkpt>
      <trkpt lat="49.2274" lon="6.71647">
        <ele>235.4</ele>
        <time>2018-05-31T13:06:24Z</time>
      </trkpt>
      <trkpt lat="49.2273" lon="6.71663">
        <ele>235.9</ele>
        <time>2018-05-31T13:06:34Z</time>
      </trkpt>
      <trkpt lat="49.22708" lon="6.71698">
        <ele>237.8</ele>
        <time>2018-05-31T13:06:47Z</time>
      </trkpt>
      <trkpt lat="49.22708" lon="6.71698">
        <ele>237.8</ele>
        <time>2018-05-31T13:08:09Z</time>
      </trkpt>
      <trkpt lat="49.22695" lon="6.71717">
        <ele>239.3</ele>
        <time>2018-05-31T13:08:17Z</time>
      </trkpt>
      <trkpt lat="49.22687" lon="6.71734">
        <ele>239.6</ele>
        <time>2018-05-31T13:08:29Z</time>
      </trkpt>
      <trkpt lat="49.2268" lon="6.71754">
        <ele>239.9</ele>
        <time>2018-05-31T13:08:42Z</time>
      </trkpt>
      <trkpt lat="49.22672" lon="6.71771">
        <ele>240.2</ele>
        <time>2018-05-31T13:08:54Z</time>
      </trkpt>
      <trkpt lat="49.22664" lon="6.71789">
        <ele>240.5</ele>
        <time>2018-05-31T13:09:08Z</time>
      </trkpt>
      <trkpt lat="49.22656" lon="6.71806">
        <ele>240.8</ele>
        <time>2018-05-31T13:09:21Z</time>
      </trkpt>
      <trkpt lat="49.22647" lon="6.71824">
        <ele>241.1</ele>
        <time>2018-05-31T13:09:33Z</time>
      </trkpt>
      <trkpt lat="49.22642" lon="6.71832">
        <ele>241.3</ele>
        <time>2018-05-31T13:09:40Z</time>
      </trkpt>
      <trkpt lat="49.22638" lon="6.71839">
        <ele>241.5</ele>
        <time>2018-05-31T13:09:46Z</time>
      </trkpt>
      <trkpt lat="49.22628" lon="6.71852">
        <ele>242.1</ele>
        <time>2018-05-31T13:09:58Z</time>
      </trkpt>
      <trkpt lat="49.22617" lon="6.71867">
        <ele>242.7</ele>
        <time>2018-05-31T13:10:10Z</time>
      </trkpt>
      <trkpt lat="49.22605" lon="6.71878">
        <ele>243.2</ele>
        <time>2018-05-31T13:10:22Z</time>
      </trkpt>
      <trkpt lat="49.22594" lon="6.71888">
        <ele>243.7</ele>
        <time>2018-05-31T13:10:33Z</time>
      </trkpt>
      <trkpt lat="49.2258" lon="6.71897">
        <ele>244.3</ele>
        <time>2018-05-31T13:10:45Z</time>
      </trkpt>
      <trkpt lat="49.22579" lon="6.71898">
        <ele>244.3</ele>
        <time>2018-05-31T13:10:46Z</time>
      </trkpt>
      <trkpt lat="49.22568" lon="6.71908">
        <ele>244.8</ele>
        <time>2018-05-31T13:10:57Z</time>
      </trkpt>
      <trkpt lat="49.22557" lon="6.71922">
        <ele>245.4</ele>
        <time>2018-05-31T13:11:10Z</time>
      </trkpt>
      <trkpt lat="49.22544" lon="6.71932">
        <ele>245.9</ele>
        <time>2018-05-31T13:11:22Z</time>
      </trkpt>
      <trkpt lat="49.2253" lon="6.7194">
        <ele>246.4</ele>
        <time>2018-05-31T13:11:34Z</time>
      </trkpt>
      <trkpt lat="49.22518" lon="6.71943">
        <ele>246.9</ele>
        <time>2018-05-31T13:11:45Z</time>
      </trkpt>
      <trkpt lat="49.22504" lon="6.71944">
        <ele>247.4</ele>
        <time>2018-05-31T13:11:57Z</time>
      </trkpt>
      <trkpt lat="49.22496" lon="6.71947">
        <ele>247.7</ele>
        <time>2018-05-31T13:12:04Z</time>
      </trkpt>
      <trkpt lat="49.2249" lon="6.7195">
        <ele>248.1</ele>
        <time>2018-05-31T13:12:10Z</time>
      </trkpt>
      <trkpt lat="49.22477" lon="6.71959">
        <ele>248.8</ele>
        <time>2018-05-31T13:12:21Z</time>
      </trkpt>
      <trkpt lat="49.22466" lon="6.71971">
        <ele>249.5</ele>
        <time>2018-05-31T13:12:31Z</time>
      </trkpt>
      <trkpt lat="49.22458" lon="6.71988">
        <ele>250.3</ele>
        <time>2018-05-31T13:12:42Z</time>
      </trkpt>
      <trkpt lat="49.22453" lon="6.72006">
        <ele>251.1</ele>
        <time>2018-05-31T13:12:55Z</time>
      </trkpt>
      <trkpt lat="49.22452" lon="6.72008">
        <ele>251.2</ele>
        <time>2018-05-31T13:12:56Z</time>
      </trkpt>
      <trkpt lat="49.22447" lon="6.72028">
        <ele>252.3</ele>
        <time>2018-05-31T13:13:09Z</time>
      </trkpt>
      <trkpt lat="49.22442" lon="6.72049">
        <ele>253.4</ele>
        <time>2018-05-31T13:13:22Z</time>
      </trkpt>
      <trkpt lat="49.22439" lon="6.72064">
        <ele>254.2</ele>
        <time>2018-05-31T13:13:31Z</time>
      </trkpt>
      <trkpt lat="49.22437" lon="6.7207">
        <ele>254.7</ele>
        <time>2018-05-31T13:13:35Z</time>
      </trkpt>
      <trkpt lat="49.22432" lon="6.72091">
        <ele>256.2</ele>
        <time>2018-05-31T13:13:47Z</time>
      </trkpt>
      <trkpt lat="49.22428" lon="6.72107">
        <ele>257.4</ele>
        <time>2018-05-31T13:13:56Z</time>
      </trkpt>
      <trkpt lat="49.22427" lon="6.72111">
        <ele>257.5</ele>
        <time>2018-05-31T13:13:58Z</time>
      </trkpt>
      <trkpt lat="49.22424" lon="6.72132">
        <ele>258.4</ele>
        <time>2018-05-31T13:14:10Z</time>
      </trkpt>
      <trkpt lat="49.2242" lon="6.72153">
        <ele>259.3</ele>
        <time>2018-05-31T13:14:22Z</time>
      </trkpt>
      <trkpt lat="49.22416" lon="6.72173">
        <ele>260.2</ele>
        <time>2018-05-31T13:14:35Z</time>
      </trkpt>
      <trkpt lat="49.22394" lon="6.72181">
        <ele>261.9</ele>
        <time>2018-05-31T13:14:51Z</time>
      </trkpt>
      <trkpt lat="49.22394" lon="6.72181">
        <ele>261.9</ele>
        <time>2018-05-31T13:18:49Z</time>
      </trkpt>
      <trkpt lat="49.22376" lon="6.72183">
        <ele>263.2</ele>
        <time>2018-05-31T13:18:56Z</time>
      </trkpt>
      <trkpt lat="49.22365" lon="6.72173">
        <ele>263.4</ele>
        <time>2018-05-31T13:19:07Z</time>
      </trkpt>
      <trkpt lat="49.22353" lon="6.72177">
        <ele>263.5</ele>
        <time>2018-05-31T13:19:18Z</time>
      </trkpt>
      <trkpt lat="49.22343" lon="6.72191">
        <ele>263.6</ele>
        <time>2018-05-31T13:19:28Z</time>
      </trkpt>
      <trkpt lat="49.22335" lon="6.72207">
        <ele>263.7</ele>
        <time>2018-05-31T13:19:38Z</time>
      </trkpt>
      <trkpt lat="49.22327" lon="6.72226">
        <ele>263.8</ele>
        <time>2018-05-31T13:19:49Z</time>
      </trkpt>
      <trkpt lat="49.22319" lon="6.72243">
        <ele>263.9</ele>
        <time>2018-05-31T13:20:01Z</time>
      </trkpt>
      <trkpt lat="49.22315" lon="6.72254">
        <ele>264</ele>
        <time>2018-05-31T13:20:07Z</time>
      </trkpt>
      <trkpt lat="49.22312" lon="6.72262">
        <ele>264.1</ele>
        <time>2018-05-31T13:20:11Z</time>
      </trkpt>
      <trkpt lat="49.22304" lon="6.72282">
        <ele>264.3</ele>
        <time>2018-05-31T13:20:22Z</time>
      </trkpt>
      <trkpt lat="49.22297" lon="6.72302">
        <ele>264.6</ele>
        <time>2018-05-31T13:20:35Z</time>
      </trkpt>
      <trkpt lat="49.2229" lon="6.72321">
        <ele>264.8</ele>
        <time>2018-05-31T13:20:46Z</time>
      </trkpt>
      <trkpt lat="49.22281" lon="6.72338">
        <ele>265.1</ele>
        <time>2018-05-31T13:20:58Z</time>
      </trkpt>
      <trkpt lat="49.22274" lon="6.72355">
        <ele>265.4</ele>
        <time>2018-05-31T13:21:10Z</time>
      </trkpt>
      <trkpt lat="49.22269" lon="6.72373">
        <ele>265.6</ele>
        <time>2018-05-31T13:21:20Z</time>
      </trkpt>
      <trkpt lat="49.22263" lon="6.72394">
        <ele>265.8</ele>
        <time>2018-05-31T13:21:31Z</time>
      </trkpt>
      <trkpt lat="49.22256" lon="6.72412">
        <ele>266.1</ele>
        <time>2018-05-31T13:21:42Z</time>
      </trkpt>
      <trkpt lat="49.22249" lon="6.7243">
        <ele>266.3</ele>
        <time>2018-05-31T13:21:53Z</time>
      </trkpt>
      <trkpt lat="49.22241" lon="6.72447">
        <ele>266.6</ele>
        <time>2018-05-31T13:22:05Z</time>
      </trkpt>
      <trkpt lat="49.22234" lon="6.72466">
        <ele>266.9</ele>
        <time>2018-05-31T13:22:18Z</time>
      </trkpt>
      <trkpt lat="49.2223" lon="6.72476">
        <ele>267</ele>
        <time>2018-05-31T13:22:24Z</time>
      </trkpt>
      <trkpt lat="49.22227" lon="6.72485">
        <ele>267.2</ele>
        <time>2018-05-31T13:22:29Z</time>
      </trkpt>
      <trkpt lat="49.22221" lon="6.72502">
        <ele>267.6</ele>
        <time>2018-05-31T13:22:38Z</time>
      </trkpt>
      <trkpt lat="49.22214" lon="6.72521">
        <ele>268</ele>
        <time>2018-05-31T13:22:50Z</time>
      </trkpt>
      <trkpt lat="49.22206" lon="6.72539">
        <ele>268.5</ele>
        <time>2018-05-31T13:23:03Z</time>
      </trkpt>
      <trkpt lat="49.22198" lon="6.72557">
        <ele>269</ele>
        <time>2018-05-31T13:23:15Z</time>
      </trkpt>
      <trkpt lat="49.22191" lon="6.72577">
        <ele>269.5</ele>
        <time>2018-05-31T13:23:26Z</time>
      </trkpt>
      <trkpt lat="49.22185" lon="6.72597">
        <ele>269.9</ele>
        <time>2018-05-31T13:23:37Z</time>
      </trkpt>
      <trkpt lat="49.22182" lon="6.72604">
        <ele>270.1</ele>
        <time>2018-05-31T13:23:42Z</time>
      </trkpt>
      <trkpt lat="49.22177" lon="6.72615">
        <ele>270</ele>
        <time>2018-05-31T13:23:50Z</time>
      </trkpt>
      <trkpt lat="49.22168" lon="6.72634">
        <ele>269.9</ele>
        <time>2018-05-31T13:24:03Z</time>
      </trkpt>
      <trkpt lat="49.22162" lon="6.72653">
        <ele>269.8</ele>
        <time>2018-05-31T13:24:14Z</time>
      </trkpt>
      <trkpt lat="49.22155" lon="6.72673">
        <ele>269.8</ele>
        <time>2018-05-31T13:24:25Z</time>
      </trkpt>
      <trkpt lat="49.2215" lon="6.72693">
        <ele>269.7</ele>
        <time>2018-05-31T13:24:36Z</time>
      </trkpt>
      <trkpt lat="49.22138" lon="6.72723">
        <ele>268.7</ele>
        <time>2018-05-31T13:24:49Z</time>
      </trkpt>
      <trkpt lat="49.22138" lon="6.72723">
        <ele>268.7</ele>
        <time>2018-05-31T13:28:33Z</time>
      </trkpt>
      <trkpt lat="49.22132" lon="6.72735">
        <ele>267.9</ele>
        <time>2018-05-31T13:28:37Z</time>
      </trkpt>
      <trkpt lat="49.22116" lon="6.72747">
        <ele>267.8</ele>
        <time>2018-05-31T13:28:47Z</time>
      </trkpt>
      <trkpt lat="49.22103" lon="6.72762">
        <ele>267.7</ele>
        <time>2018-05-31T13:29:00Z</time>
      </trkpt>
      <trkpt lat="49.22092" lon="6.72775">
        <ele>267.6</ele>
        <time>2018-05-31T13:29:16Z</time>
      </trkpt>
      <trkpt lat="49.22079" lon="6.72784">
        <ele>267.5</ele>
        <time>2018-05-31T13:29:28Z</time>
      </trkpt>
      <trkpt lat="49.22066" lon="6.72793">
        <ele>267.4</ele>
        <time>2018-05-31T13:29:40Z</time>
      </trkpt>
      <trkpt lat="49.22054" lon="6.72806">
        <ele>267.3</ele>
        <time>2018-05-31T13:29:54Z</time>
      </trkpt>
      <trkpt lat="49.22043" lon="6.72818">
        <ele>267.2</ele>
        <time>2018-05-31T13:30:06Z</time>
      </trkpt>
      <trkpt lat="49.22031" lon="6.72831">
        <ele>267.2</ele>
        <time>2018-05-31T13:30:17Z</time>
      </trkpt>
      <trkpt lat="49.22019" lon="6.72842">
        <ele>267.1</ele>
        <time>2018-05-31T13:30:27Z</time>
      </trkpt>
      <trkpt lat="49.22011" lon="6.72849">
        <ele>267</ele>
        <time>2018-05-31T13:30:34Z</time>
      </trkpt>
      <trkpt lat="49.22006" lon="6.72853">
        <ele>266.8</ele>
        <time>2018-05-31T13:30:38Z</time>
      </trkpt>
      <trkpt lat="49.21993" lon="6.72865">
        <ele>266.2</ele>
        <time>2018-05-31T13:30:50Z</time>
      </trkpt>
      <trkpt lat="49.21981" lon="6.72876">
        <ele>265.7</ele>
        <time>2018-05-31T13:31:02Z</time>
      </trkpt>
      <trkpt lat="49.2197" lon="6.72891">
        <ele>265.1</ele>
        <time>2018-05-31T13:31:14Z</time>
      </trkpt>
      <trkpt lat="49.21957" lon="6.72904">
        <ele>264.5</ele>
        <time>2018-05-31T13:31:26Z</time>
      </trkpt>
      <trkpt lat="49.21944" lon="6.72913">
        <ele>263.9</ele>
        <time>2018-05-31T13:31:38Z</time>
      </trkpt>
      <trkpt lat="49.21942" lon="6.72915">
        <ele>263.8</ele>
        <time>2018-05-31T13:31:40Z</time>
      </trkpt>
      <trkpt lat="49.21932" lon="6.72924">
        <ele>263.1</ele>
        <time>2018-05-31T13:31:48Z</time>
      </trkpt>
      <trkpt lat="49.21921" lon="6.72938">
        <ele>262.2</ele>
        <time>2018-05-31T13:31:58Z</time>
      </trkpt>
      <trkpt lat="49.21912" lon="6.7295">
        <ele>261.4</ele>
        <time>2018-05-31T13:32:08Z</time>
      </trkpt>
      <trkpt lat="49.21905" lon="6.72959">
        <ele>260.7</ele>
        <time>2018-05-31T13:32:16Z</time>
      </trkpt>
      <trkpt lat="49.21903" lon="6.72961">
        <ele>260.5</ele>
        <time>2018-05-31T13:32:18Z</time>
      </trkpt>
      <trkpt lat="49.21891" lon="6.72975">
        <ele>259.8</ele>
        <time>2018-05-31T13:32:28Z</time>
      </trkpt>
      <trkpt lat="49.21879" lon="6.72985">
        <ele>259.1</ele>
        <time>2018-05-31T13:32:38Z</time>
      </trkpt>
      <trkpt lat="49.21865" lon="6.72991">
        <ele>258.2</ele>
        <time>2018-05-31T13:32:51Z</time>
      </trkpt>
      <trkpt lat="49.21851" lon="6.72996">
        <ele>257.4</ele>
        <time>2018-05-31T13:33:03Z</time>
      </trkpt>
      <trkpt lat="49.2185" lon="6.72996">
        <ele>257.4</ele>
        <time>2018-05-31T13:33:04Z</time>
      </trkpt>
      <trkpt lat="49.21838" lon="6.73003">
        <ele>256.8</ele>
        <time>2018-05-31T13:33:14Z</time>
      </trkpt>
      <trkpt lat="49.21825" lon="6.73009">
        <ele>256.2</ele>
        <time>2018-05-31T13:33:25Z</time>
      </trkpt>
      <trkpt lat="49.2181" lon="6.73013">
        <ele>255.6</ele>
        <time>2018-05-31T13:33:37Z</time>
      </trkpt>
      <trkpt lat="49.21797" lon="6.73016">
        <ele>255.1</ele>
        <time>2018-05-31T13:33:47Z</time>
      </trkpt>
      <trkpt lat="49.21782" lon="6.73019">
        <ele>254.4</ele>
        <time>2018-05-31T13:33:59Z</time>
      </trkpt>
      <trkpt lat="49.21777" lon="6.7302">
        <ele>254.2</ele>
        <time>2018-05-31T13:34:03Z</time>
      </trkpt>
      <trkpt lat="49.21768" lon="6.73023">
        <ele>253.8</ele>
        <time>2018-05-31T13:34:10Z</time>
      </trkpt>
      <trkpt lat="49.21754" lon="6.73029">
        <ele>253.1</ele>
        <time>2018-05-31T13:34:21Z</time>
      </trkpt>
      <trkpt lat="49.21741" lon="6.73033">
        <ele>252.4</ele>
        <time>2018-05-31T13:34:31Z</time>
      </trkpt>
      <trkpt lat="49.21728" lon="6.73038">
        <ele>251.7</ele>
        <time>2018-05-31T13:34:42Z</time>
      </trkpt>
      <trkpt lat="49.21718" lon="6.73043">
        <ele>251.1</ele>
        <time>2018-05-31T13:34:51Z</time>
      </trkpt>
      <trkpt lat="49.21715" lon="6.73044">
        <ele>251</ele>
        <time>2018-05-31T13:34:54Z</time>
      </trkpt>
      <trkpt lat="49.21701" lon="6.7305">
        <ele>250.3</ele>
        <time>2018-05-31T13:35:07Z</time>
      </trkpt>
      <trkpt lat="49.21687" lon="6.73054">
        <ele>249.7</ele>
        <time>2018-05-31T13:35:19Z</time>
      </trkpt>
      <trkpt lat="49.21673" lon="6.73062">
        <ele>249.1</ele>
        <time>2018-05-31T13:35:30Z</time>
      </trkpt>
      <trkpt lat="49.21662" lon="6.73073">
        <ele>248.7</ele>
        <time>2018-05-31T13:35:38Z</time>
      </trkpt>
      <trkpt lat="49.21651" lon="6.73085">
        <ele>248.3</ele>
        <time>2018-05-31T13:35:47Z</time>
      </trkpt>
      <trkpt lat="49.21647" lon="6.73088">
        <ele>248.1</ele>
        <time>2018-05-31T13:35:50Z</time>
      </trkpt>
      <trkpt lat="49.21638" lon="6.73095">
        <ele>247.8</ele>
        <time>2018-05-31T13:35:59Z</time>
      </trkpt>
      <trkpt lat="49.21624" lon="6.73104">
        <ele>247.5</ele>
        <time>2018-05-31T13:36:11Z</time>
      </trkpt>
      <trkpt lat="49.2161" lon="6.73113">
        <ele>247.1</ele>
        <time>2018-05-31T13:36:23Z</time>
      </trkpt>
      <trkpt lat="49.21598" lon="6.73124">
        <ele>246.8</ele>
        <time>2018-05-31T13:36:34Z</time>
      </trkpt>
      <trkpt lat="49.21586" lon="6.73136">
        <ele>246.4</ele>
        <time>2018-05-31T13:36:44Z</time>
      </trkpt>
      <trkpt lat="49.21577" lon="6.73148">
        <ele>246.2</ele>
        <time>2018-05-31T13:36:53Z</time>
      </trkpt>
      <trkpt lat="49.21573" lon="6.73164">
        <ele>245.9</ele>
        <time>2018-05-31T13:37:01Z</time>
      </trkpt>
      <trkpt lat="49.21567" lon="6.73184">
        <ele>245.6</ele>
        <time>2018-05-31T13:37:12Z</time>
      </trkpt>
      <trkpt lat="49.21558" lon="6.73201">
        <ele>245.3</ele>
        <time>2018-05-31T13:37:23Z</time>
      </trkpt>
      <trkpt lat="49.21551" lon="6.73213">
        <ele>245</ele>
        <time>2018-05-31T13:37:32Z</time>
      </trkpt>
      <trkpt lat="49.21548" lon="6.73217">
        <ele>244.9</ele>
        <time>2018-05-31T13:37:35Z</time>
      </trkpt>
      <trkpt lat="49.2154" lon="6.73233">
        <ele>244.7</ele>
        <time>2018-05-31T13:37:46Z</time>
      </trkpt>
      <trkpt lat="49.2153" lon="6.7325">
        <ele>244.4</ele>
        <time>2018-05-31T13:37:57Z</time>
      </trkpt>
      <trkpt lat="49.21521" lon="6.73266">
        <ele>244.2</ele>
        <time>2018-05-31T13:38:08Z</time>
      </trkpt>
      <trkpt lat="49.21513" lon="6.73284">
        <ele>243.9</ele>
        <time>2018-05-31T13:38:20Z</time>
      </trkpt>
      <trkpt lat="49.21504" lon="6.73299">
        <ele>243.6</ele>
        <time>2018-05-31T13:38:31Z</time>
      </trkpt>
      <trkpt lat="49.21496" lon="6.73317">
        <ele>243.4</ele>
        <time>2018-05-31T13:38:42Z</time>
      </trkpt>
      <trkpt lat="49.21491" lon="6.73331">
        <ele>243.2</ele>
        <time>2018-05-31T13:38:50Z</time>
      </trkpt>
      <trkpt lat="49.21488" lon="6.73347">
        <ele>243</ele>
        <time>2018-05-31T13:38:59Z</time>
      </trkpt>
      <trkpt lat="49.21485" lon="6.73368">
        <ele>242.8</ele>
        <time>2018-05-31T13:39:09Z</time>
      </trkpt>
      <trkpt lat="49.21479" lon="6.73386">
        <ele>242.5</ele>
        <time>2018-05-31T13:39:20Z</time>
      </trkpt>
      <trkpt lat="49.21471" lon="6.73404">
        <ele>242.2</ele>
        <time>2018-05-31T13:39:32Z</time>
      </trkpt>
      <trkpt lat="49.21462" lon="6.73421">
        <ele>242</ele>
        <time>2018-05-31T13:39:44Z</time>
      </trkpt>
      <trkpt lat="49.21461" lon="6.73422">
        <ele>242</ele>
        <time>2018-05-31T13:39:45Z</time>
      </trkpt>
      <trkpt lat="49.21451" lon="6.73438">
        <ele>242.1</ele>
        <time>2018-05-31T13:39:58Z</time>
      </trkpt>
      <trkpt lat="49.21442" lon="6.73452">
        <ele>242.1</ele>
        <time>2018-05-31T13:40:09Z</time>
      </trkpt>
      <trkpt lat="49.21425" lon="6.73458">
        <ele>243.3</ele>
        <time>2018-05-31T13:40:21Z</time>
      </trkpt>
      <trkpt lat="49.21425" lon="6.73458">
        <ele>243.3</ele>
        <time>2018-05-31T13:45:27Z</time>
      </trkpt>
      <trkpt lat="49.21418" lon="6.73449">
        <ele>244.3</ele>
        <time>2018-05-31T13:45:35Z</time>
      </trkpt>
      <trkpt lat="49.21418" lon="6.73432">
        <ele>244.4</ele>
        <time>2018-05-31T13:45:45Z</time>
      </trkpt>
      <trkpt lat="49.21415" lon="6.73413">
        <ele>244.5</ele>
        <time>2018-05-31T13:45:56Z</time>
      </trkpt>
      <trkpt lat="49.21411" lon="6.73393">
        <ele>244.5</ele>
        <time>2018-05-31T13:46:07Z</time>
      </trkpt>
      <trkpt lat="49.21405" lon="6.73375">
        <ele>244.6</ele>
        <time>2018-05-31T13:46:18Z</time>
      </trkpt>
      <trkpt lat="49.21397" lon="6.73355">
        <ele>244.7</ele>
        <time>2018-05-31T13:46:30Z</time>
      </trkpt>
      <trkpt lat="49.21391" lon="6.73335">
        <ele>244.8</ele>
        <time>2018-05-31T13:46:40Z</time>
      </trkpt>
      <trkpt lat="49.21386" lon="6.73315">
        <ele>244.8</ele>
        <time>2018-05-31T13:46:50Z</time>
      </trkpt>
      <trkpt lat="49.21381" lon="6.73294">
        <ele>244.9</ele>
        <time>2018-05-31T13:47:02Z</time>
      </trkpt>
      <trkpt lat="49.21375" lon="6.73272">
        <ele>245</ele>
        <time>2018-05-31T13:47:14Z</time>
      </trkpt>
      <trkpt lat="49.2137" lon="6.73253">
        <ele>245.1</ele>
        <time>2018-05-31T13:47:24Z</time>
      </trkpt>
      <trkpt lat="49.21364" lon="6.73233">
        <ele>245.4</ele>
        <time>2018-05-31T13:47:36Z</time>
      </trkpt>
      <trkpt lat="49.21359" lon="6.73212">
        <ele>245.7</ele>
        <time>2018-05-31T13:47:47Z</time>
      </trkpt>
      <trkpt lat="49.21354" lon="6.73193">
        <ele>246</ele>
        <time>2018-05-31T13:47:57Z</time>
      </trkpt>
      <trkpt lat="49.21348" lon="6.73174">
        <ele>246.3</ele>
        <time>2018-05-31T13:48:08Z</time>
      </trkpt>
      <trkpt lat="49.2134" lon="6.73155">
        <ele>246.6</ele>
        <time>2018-05-31T13:48:20Z</time>
      </trkpt>
      <trkpt lat="49.21335" lon="6.73136">
        <ele>246.9</ele>
        <time>2018-05-31T13:48:31Z</time>
      </trkpt>
      <trkpt lat="49.21329" lon="6.73117">
        <ele>247.2</ele>
        <time>2018-05-31T13:48:41Z</time>
      </trkpt>
      <trkpt lat="49.21323" lon="6.73098">
        <ele>247.5</ele>
        <time>2018-05-31T13:48:52Z</time>
      </trkpt>
      <trkpt lat="49.21317" lon="6.73078">
        <ele>247.8</ele>
        <time>2018-05-31T13:49:04Z</time>
      </trkpt>
      <trkpt lat="49.21311" lon="6.73057">
        <ele>248.1</ele>
        <time>2018-05-31T13:49:15Z</time>
      </trkpt>
      <trkpt lat="49.21307" lon="6.73043">
        <ele>248.4</ele>
        <time>2018-05-31T13:49:23Z</time>
      </trkpt>
      <trkpt lat="49.21306" lon="6.73039">
        <ele>248.4</ele>
        <time>2018-05-31T13:49:25Z</time>
      </trkpt>
      <trkpt lat="49.213" lon="6.73019">
        <ele>248.7</ele>
        <time>2018-05-31T13:49:37Z</time>
      </trkpt>
      <trkpt lat="49.21295" lon="6.72998">
        <ele>249</ele>
        <time>2018-05-31T13:49:49Z</time>
      </trkpt>
      <trkpt lat="49.21291" lon="6.72977">
        <ele>249.3</ele>
        <time>2018-05-31T13:50:00Z</time>
      </trkpt>
      <trkpt lat="49.21286" lon="6.72956">
        <ele>249.7</ele>
        <time>2018-05-31T13:50:12Z</time>
      </trkpt>
      <trkpt lat="49.21279" lon="6.72937">
        <ele>250</ele>
        <time>2018-05-31T13:50:24Z</time>
      </trkpt>
      <trkpt lat="49.21271" lon="6.72918">
        <ele>250.3</ele>
        <time>2018-05-31T13:50:35Z</time>
      </trkpt>
      <trkpt lat="49.21267" lon="6.72904">
        <ele>250.5</ele>
        <time>2018-05-31T13:50:43Z</time>
      </trkpt>
      <trkpt lat="49.21266" lon="6.72898">
        <ele>250.5</ele>
        <time>2018-05-31T13:50:46Z</time>
      </trkpt>
      <trkpt lat="49.21261" lon="6.72877">
        <ele>250.8</ele>
        <time>2018-05-31T13:50:57Z</time>
      </trkpt>
      <trkpt lat="49.21257" lon="6.72857">
        <ele>251.1</ele>
        <time>2018-05-31T13:51:08Z</time>
      </trkpt>
      <trkpt lat="49.21251" lon="6.72838">
        <ele>251.4</ele>
        <time>2018-05-31T13:51:18Z</time>
      </trkpt>
      <trkpt lat="49.21249" lon="6.72829">
        <ele>251.5</ele>
        <time>2018-05-31T13:51:23Z</time>
      </trkpt>
      <trkpt lat="49.21245" lon="6.72819">
        <ele>251.7</ele>
        <time>2018-05-31T13:51:29Z</time>
      </trkpt>
      <trkpt lat="49.21239" lon="6.72799">
        <ele>252.1</ele>
        <time>2018-05-31T13:51:41Z</time>
      </trkpt>
      <trkpt lat="49.21233" lon="6.72779">
        <ele>252.4</ele>
        <time>2018-05-31T13:51:53Z</time>
      </trkpt>
      <trkpt lat="49.21228" lon="6.72758">
        <ele>252.7</ele>
        <time>2018-05-31T13:52:04Z</time>
      </trkpt>
      <trkpt lat="49.21221" lon="6.72739">
        <ele>253.1</ele>
        <time>2018-05-31T13:52:15Z</time>
      </trkpt>
      <trkpt lat="49.21213" lon="6.72722">
        <ele>253.4</ele>
        <time>2018-05-31T13:52:26Z</time>
      </trkpt>
      <trkpt lat="49.21206" lon="6.72704">
        <ele>253.9</ele>
        <time>2018-05-31T13:52:41Z</time>
      </trkpt>
      <trkpt lat="49.21196" lon="6.72685">
        <ele>254.3</ele>
        <time>2018-05-31T13:52:57Z</time>
      </trkpt>
      <trkpt lat="49.21186" lon="6.72669">
        <ele>254.5</ele>
        <time>2018-05-31T13:53:04Z</time>
      </trkpt>
      <trkpt lat="49.21184" lon="6.72657">
        <ele>254.7</ele>
        <time>2018-05-31T13:53:08Z</time>
      </trkpt>
      <trkpt lat="49.21183" lon="6.72641">
        <ele>254.9</ele>
        <time>2018-05-31T13:53:16Z</time>
      </trkpt>
      <trkpt lat="49.21178" lon="6.7263">
        <ele>255.1</ele>
        <time>2018-05-31T13:53:23Z</time>
      </trkpt>
      <trkpt lat="49.21175" lon="6.72625">
        <ele>255.2</ele>
        <time>2018-05-31T13:53:26Z</time>
      </trkpt>
      <trkpt lat="49.21167" lon="6.72608">
        <ele>255.8</ele>
        <time>2018-05-31T13:53:38Z</time>
      </trkpt>
      <trkpt lat="49.21162" lon="6.72589">
        <ele>256.3</ele>
        <time>2018-05-31T13:53:51Z</time>
      </trkpt>
      <trkpt lat="49.21156" lon="6.7257">
        <ele>256.8</ele>
        <time>2018-05-31T13:54:03Z</time>
      </trkpt>
      <trkpt lat="49.21152" lon="6.72549">
        <ele>257.3</ele>
        <time>2018-05-31T13:54:15Z</time>
      </trkpt>
      <trkpt lat="49.21148" lon="6.72528">
        <ele>257.8</ele>
        <time>2018-05-31T13:54:27Z</time>
      </trkpt>
      <trkpt lat="49.21144" lon="6.72507">
        <ele>258.4</ele>
        <time>2018-05-31T13:54:39Z</time>
      </trkpt>
      <trkpt lat="49.21143" lon="6.72504">
        <ele>258.4</ele>
        <time>2018-05-31T13:54:41Z</time>
      </trkpt>
      <trkpt lat="49.21138" lon="6.72486">
        <ele>258.9</ele>
        <time>2018-05-31T13:54:52Z</time>
      </trkpt>
      <trkpt lat="49.21133" lon="6.72465">
        <ele>259.4</ele>
        <time>2018-05-31T13:55:04Z</time>
      </trkpt>
      <trkpt lat="49.21129" lon="6.72444">
        <ele>259.9</ele>
        <time>2018-05-31T13:55:16Z</time>
      </trkpt>
      <trkpt lat="49.21126" lon="6.72423">
        <ele>260.5</ele>
        <time>2018-05-31T13:55:29Z</time>
      </trkpt>
      <trkpt lat="49.21121" lon="6.72401">
        <ele>261</ele>
        <time>2018-05-31T13:55:42Z</time>
      </trkpt>
      <trkpt lat="49.21116" lon="6.7238">
        <ele>261.5</ele>
        <time>2018-05-31T13:55:54Z</time>
      </trkpt>
      <trkpt lat="49.21114" lon="6.72373">
        <ele>261.7</ele>
        <time>2018-05-31T13:55:58Z</time>
      </trkpt>
      <trkpt lat="49.2111" lon="6.72361">
        <ele>262</ele>
        <time>2018-05-31T13:56:05Z</time>
      </trkpt>
      <trkpt lat="49.21103" lon="6.72343">
        <ele>262.5</ele>
        <time>2018-05-31T13:56:15Z</time>
      </trkpt>
      <trkpt lat="49.21098" lon="6.72325">
        <ele>263</ele>
        <time>2018-05-31T13:56:26Z</time>
      </trkpt>
      <trkpt lat="49.21092" lon="6.72304">
        <ele>263.6</ele>
        <time>2018-05-31T13:56:38Z</time>
      </trkpt>
      <trkpt lat="49.21087" lon="6.72284">
        <ele>264.1</ele>
        <time>2018-05-31T13:56:49Z</time>
      </trkpt>
      <trkpt lat="49.21083" lon="6.72263">
        <ele>264.7</ele>
        <time>2018-05-31T13:57:02Z</time>
      </trkpt>
      <trkpt lat="49.21082" lon="6.7226">
        <ele>264.8</ele>
        <time>2018-05-31T13:57:04Z</time>
      </trkpt>
      <trkpt lat="49.21077" lon="6.72244">
        <ele>265</ele>
        <time>2018-05-31T13:57:14Z</time>
      </trkpt>
      <trkpt lat="49.21073" lon="6.72224">
        <ele>265.2</ele>
        <time>2018-05-31T13:57:25Z</time>
      </trkpt>
      <trkpt lat="49.21067" lon="6.72203">
        <ele>265.4</ele>
        <time>2018-05-31T13:57:39Z</time>
      </trkpt>
      <trkpt lat="49.21058" lon="6.72192">
        <ele>265.6</ele>
        <time>2018-05-31T13:57:51Z</time>
      </trkpt>
      <trkpt lat="49.21054" lon="6.72182">
        <ele>266</ele>
        <time>2018-05-31T13:58:10Z</time>
      </trkpt>
      <trkpt lat="49.21064" lon="6.72168">
        <ele>266.4</ele>
        <time>2018-05-31T13:58:30Z</time>
      </trkpt>
      <trkpt lat="49.21078" lon="6.72159">
        <ele>266.6</ele>
        <time>2018-05-31T13:58:42Z</time>
      </trkpt>
      <trkpt lat="49.21091" lon="6.72151">
        <ele>266.8</ele>
        <time>2018-05-31T13:58:53Z</time>
      </trkpt>
      <trkpt lat="49.21102" lon="6.7214">
        <ele>267</ele>
        <time>2018-05-31T13:59:04Z</time>
      </trkpt>
      <trkpt lat="49.21115" lon="6.72127">
        <ele>267.2</ele>
        <time>2018-05-31T13:59:17Z</time>
      </trkpt>
      <trkpt lat="49.21127" lon="6.72116">
        <ele>267.5</ele>
        <time>2018-05-31T13:59:30Z</time>
      </trkpt>
      <trkpt lat="49.2114" lon="6.72104">
        <ele>267.7</ele>
        <time>2018-05-31T13:59:42Z</time>
      </trkpt>
      <trkpt lat="49.2117" lon="6.72068">
        <ele>268.3</ele>
        <time>2018-05-31T14:00:03Z</time>
      </trkpt>
      <trkpt lat="49.2117" lon="6.72068">
        <ele>268.3</ele>
        <time>2018-05-31T14:01:13Z</time>
      </trkpt>
      <trkpt lat="49.21185" lon="6.72037">
        <ele>269.7</ele>
        <time>2018-05-31T14:01:20Z</time>
      </trkpt>
      <trkpt lat="49.21185" lon="6.72037">
        <ele>269.7</ele>
        <time>2018-05-31T14:04:52Z</time>
      </trkpt>
      <trkpt lat="49.21182" lon="6.72031">
        <ele>270.7</ele>
        <time>2018-05-31T14:04:53Z</time>
      </trkpt>
      <trkpt lat="49.2118" lon="6.72011">
        <ele>270.8</ele>
        <time>2018-05-31T14:05:04Z</time>
      </trkpt>
      <trkpt lat="49.21177" lon="6.7199">
        <ele>270.9</ele>
        <time>2018-05-31T14:05:16Z</time>
      </trkpt>
      <trkpt lat="49.21173" lon="6.71969">
        <ele>271</ele>
        <time>2018-05-31T14:05:29Z</time>
      </trkpt>
      <trkpt lat="49.21169" lon="6.71948">
        <ele>271.1</ele>
        <time>2018-05-31T14:05:42Z</time>
      </trkpt>
      <trkpt lat="49.21168" lon="6.71934">
        <ele>271.2</ele>
        <time>2018-05-31T14:05:50Z</time>
      </trkpt>
      <trkpt lat="49.21168" lon="6.71927">
        <ele>270.9</ele>
        <time>2018-05-31T14:05:54Z</time>
      </trkpt>
      <trkpt lat="49.21168" lon="6.71906">
        <ele>270.1</ele>
        <time>2018-05-31T14:06:06Z</time>
      </trkpt>
      <trkpt lat="49.21165" lon="6.71884">
        <ele>269.3</ele>
        <time>2018-05-31T14:06:19Z</time>
      </trkpt>
      <trkpt lat="49.21164" lon="6.71872">
        <ele>268.8</ele>
        <time>2018-05-31T14:06:26Z</time>
      </trkpt>
      <trkpt lat="49.21164" lon="6.71864">
        <ele>268.5</ele>
        <time>2018-05-31T14:06:31Z</time>
      </trkpt>
      <trkpt lat="49.21163" lon="6.71842">
        <ele>267.7</ele>
        <time>2018-05-31T14:06:43Z</time>
      </trkpt>
      <trkpt lat="49.2116" lon="6.71821">
        <ele>266.8</ele>
        <time>2018-05-31T14:06:56Z</time>
      </trkpt>
      <trkpt lat="49.21157" lon="6.718">
        <ele>266</ele>
        <time>2018-05-31T14:07:09Z</time>
      </trkpt>
      <trkpt lat="49.21155" lon="6.71779">
        <ele>265.2</ele>
        <time>2018-05-31T14:07:21Z</time>
      </trkpt>
      <trkpt lat="49.21154" lon="6.71758">
        <ele>264.4</ele>
        <time>2018-05-31T14:07:33Z</time>
      </trkpt>
      <trkpt lat="49.2115" lon="6.71739">
        <ele>263.6</ele>
        <time>2018-05-31T14:07:45Z</time>
      </trkpt>
      <trkpt lat="49.21147" lon="6.71719">
        <ele>262.9</ele>
        <time>2018-05-31T14:07:56Z</time>
      </trkpt>
      <trkpt lat="49.21145" lon="6.71699">
        <ele>262.1</ele>
        <time>2018-05-31T14:08:08Z</time>
      </trkpt>
      <trkpt lat="49.21142" lon="6.71655">
        <ele>265.7</ele>
        <time>2018-05-31T14:08:30Z</time>
      </trkpt>
      <trkpt lat="49.21142" lon="6.71655">
        <ele>265.7</ele>
        <time>2018-05-31T14:12:30Z</time>
      </trkpt>
      <trkpt lat="49.2114" lon="6.71631">
        <ele>270.3</ele>
        <time>2018-05-31T14:12:32Z</time>
      </trkpt>
      <trkpt lat="49.21137" lon="6.71616">
        <ele>270.3</ele>
        <time>2018-05-31T14:12:35Z</time>
      </trkpt>
    </trkseg>
  </trk>
</gpx>